sensor_id;sensor_type;location;lat;lon;timestamp;temperature;humidity
3528;DHT22;1778;47.966;7.854;2023-08-17T00:00:33;20.30;99.90
3528;DHT22;1778;47.966;7.854;2023-08-17T00:01:35;20.30;99.90
3528;DHT22;1778;47.966;7.854;2023-08-17T00:02:36;20.30;99.90
3528;DHT22;1778;47.966;7.854;2023-08-17T00:03:38;20.30;99.90
3528;DHT22;1778;47.966;7.854;2023-08-17T00:04:40;20.30;99.90
3528;DHT22;1778;47.966;7.854;2023-08-17T00:05:42;20.30;99.90
3528;DHT22;1778;47.966;7.854;2023-08-17T00:06:44;20.30;99.90
3528;DHT22;1778;47.966;7.854;2023-08-17T00:07:45;20.20;99.90
3528;DHT22;1778;47.966;7.854;2023-08-17T00:08:47;20.20;99.90
3528;DHT22;1778;47.966;7.854;2023-08-17T00:09:48;20.20;99.90
3528;DHT22;1778;47.966;7.854;2023-08-17T00:10:51;20.20;99.90
3528;DHT22;1778;47.966;7.854;2023-08-17T00:11:53;20.10;99.90
3528;DHT22;1778;47.966;7.854;2023-08-17T00:12:55;20.10;99.90
3528;DHT22;1778;47.966;7.854;2023-08-17T00:13:56;20.10;99.90
3528;DHT22;1778;47.966;7.854;2023-08-17T00:14:58;20.10;99.90
3528;DHT22;1778;47.966;7.854;2023-08-17T00:15:59;20.10;99.90
3528;DHT22;1778;47.966;7.854;2023-08-17T00:17:01;20.10;99.90
3528;DHT22;1778;47.966;7.854;2023-08-17T00:18:04;20.10;99.90
3528;DHT22;1778;47.966;7.854;2023-08-17T00:19:05;20.00;99.90
3528;DHT22;1778;47.966;7.854;2023-08-17T00:20:07;20.00;99.90
3528;DHT22;1778;47.966;7.854;2023-08-17T00:21:11;20.00;99.90
3528;DHT22;1778;47.966;7.854;2023-08-17T00:22:12;20.00;99.90
3528;DHT22;1778;47.966;7.854;2023-08-17T00:23:14;20.00;99.90
3528;DHT22;1778;47.966;7.854;2023-08-17T00:24:15;20.00;99.90
3528;DHT22;1778;47.966;7.854;2023-08-17T00:25:17;19.90;99.90
3528;DHT22;1778;47.966;7.854;2023-08-17T00:26:18;19.90;99.90
3528;DHT22;1778;47.966;7.854;2023-08-17T00:27:20;19.90;99.90
3528;DHT22;1778;47.966;7.854;2023-08-17T00:28:21;19.90;99.90
3528;DHT22;1778;47.966;7.854;2023-08-17T00:29:23;19.90;99.90
3528;DHT22;1778;47.966;7.854;2023-08-17T00:30:25;19.90;99.90
3528;DHT22;1778;47.966;7.854;2023-08-17T00:31:26;19.90;99.90
3528;DHT22;1778;47.966;7.854;2023-08-17T00:32:28;19.90;99.90
3528;DHT22;1778;47.966;7.854;2023-08-17T00:33:29;19.90;99.90
3528;DHT22;1778;47.966;7.854;2023-08-17T00:34:31;19.90;99.90
3528;DHT22;1778;47.966;7.854;2023-08-17T00:35:33;19.90;99.90
3528;DHT22;1778;47.966;7.854;2023-08-17T00:36:35;19.90;99.90
3528;DHT22;1778;47.966;7.854;2023-08-17T00:37:37;19.90;99.90
3528;DHT22;1778;47.966;7.854;2023-08-17T00:38:38;20.00;99.90
3528;DHT22;1778;47.966;7.854;2023-08-17T00:39:40;19.90;99.90
3528;DHT22;1778;47.966;7.854;2023-08-17T00:40:41;19.90;99.90
3528;DHT22;1778;47.966;7.854;2023-08-17T00:41:43;19.80;99.90
3528;DHT22;1778;47.966;7.854;2023-08-17T00:42:44;19.80;99.90
3528;DHT22;1778;47.966;7.854;2023-08-17T00:43:47;19.80;99.90
3528;DHT22;1778;47.966;7.854;2023-08-17T00:44:49;19.70;99.90
3528;DHT22;1778;47.966;7.854;2023-08-17T00:45:50;19.70;99.90
3528;DHT22;1778;47.966;7.854;2023-08-17T00:46:52;19.70;99.90
3528;DHT22;1778;47.966;7.854;2023-08-17T00:47:57;19.70;99.90
3528;DHT22;1778;47.966;7.854;2023-08-17T00:48:59;19.70;99.90
3528;DHT22;1778;47.966;7.854;2023-08-17T00:50:03;19.70;99.90
3528;DHT22;1778;47.966;7.854;2023-08-17T00:51:05;19.70;99.90
3528;DHT22;1778;47.966;7.854;2023-08-17T00:52:08;19.70;99.90
3528;DHT22;1778;47.966;7.854;2023-08-17T00:53:09;19.70;99.90
3528;DHT22;1778;47.966;7.854;2023-08-17T00:54:19;19.70;99.90
3528;DHT22;1778;47.966;7.854;2023-08-17T00:55:24;19.80;99.90
3528;DHT22;1778;47.966;7.854;2023-08-17T00:56:26;19.70;99.90
3528;DHT22;1778;47.966;7.854;2023-08-17T00:57:29;19.70;99.90
3528;DHT22;1778;47.966;7.854;2023-08-17T00:58:31;19.70;99.90
3528;DHT22;1778;47.966;7.854;2023-08-17T00:59:33;19.70;99.90
3528;DHT22;1778;47.966;7.854;2023-08-17T01:00:37;19.70;99.90
3528;DHT22;1778;47.966;7.854;2023-08-17T01:01:39;19.70;99.90
3528;DHT22;1778;47.966;7.854;2023-08-17T01:02:41;19.70;99.90
3528;DHT22;1778;47.966;7.854;2023-08-17T01:03:43;19.70;99.90
3528;DHT22;1778;47.966;7.854;2023-08-17T01:04:45;19.70;99.90
3528;DHT22;1778;47.966;7.854;2023-08-17T01:05:47;19.60;99.90
3528;DHT22;1778;47.966;7.854;2023-08-17T01:06:50;19.60;99.90
3528;DHT22;1778;47.966;7.854;2023-08-17T01:07:51;19.60;99.90
3528;DHT22;1778;47.966;7.854;2023-08-17T01:08:53;19.60;99.90
3528;DHT22;1778;47.966;7.854;2023-08-17T01:09:57;19.60;99.90
3528;DHT22;1778;47.966;7.854;2023-08-17T01:12:38;19.60;99.90
3528;DHT22;1778;47.966;7.854;2023-08-17T01:15:21;19.50;99.90
3528;DHT22;1778;47.966;7.854;2023-08-17T01:17:22;19.50;99.90
3528;DHT22;1778;47.966;7.854;2023-08-17T01:18:17;19.50;99.90
3528;DHT22;1778;47.966;7.854;2023-08-17T01:19:27;19.50;99.90
3528;DHT22;1778;47.966;7.854;2023-08-17T01:20:30;19.60;99.90
3528;DHT22;1778;47.966;7.854;2023-08-17T01:21:39;19.50;99.90
3528;DHT22;1778;47.966;7.854;2023-08-17T01:22:45;19.50;99.90
3528;DHT22;1778;47.966;7.854;2023-08-17T01:23:49;19.40;99.90
3528;DHT22;1778;47.966;7.854;2023-08-17T01:24:54;19.40;99.90
3528;DHT22;1778;47.966;7.854;2023-08-17T01:25:58;19.30;99.90
3528;DHT22;1778;47.966;7.854;2023-08-17T01:27:00;19.30;99.90
3528;DHT22;1778;47.966;7.854;2023-08-17T01:28:03;19.40;99.90
3528;DHT22;1778;47.966;7.854;2023-08-17T01:29:06;19.40;99.90
3528;DHT22;1778;47.966;7.854;2023-08-17T01:30:11;19.40;99.90
3528;DHT22;1778;47.966;7.854;2023-08-17T01:31:19;19.40;99.90
3528;DHT22;1778;47.966;7.854;2023-08-17T01:32:49;19.30;99.90
3528;DHT22;1778;47.966;7.854;2023-08-17T01:33:58;19.40;99.90
3528;DHT22;1778;47.966;7.854;2023-08-17T01:36:32;19.40;99.90
3528;DHT22;1778;47.966;7.854;2023-08-17T01:37:36;19.30;99.90
3528;DHT22;1778;47.966;7.854;2023-08-17T01:38:40;19.30;99.90
3528;DHT22;1778;47.966;7.854;2023-08-17T01:39:44;19.30;99.90
3528;DHT22;1778;47.966;7.854;2023-08-17T01:40:47;19.40;99.90
3528;DHT22;1778;47.966;7.854;2023-08-17T01:41:50;19.30;99.90
3528;DHT22;1778;47.966;7.854;2023-08-17T01:42:54;19.40;99.90
3528;DHT22;1778;47.966;7.854;2023-08-17T01:43:56;19.30;99.90
3528;DHT22;1778;47.966;7.854;2023-08-17T01:44:59;19.30;99.90
3528;DHT22;1778;47.966;7.854;2023-08-17T01:46:00;19.30;99.90
3528;DHT22;1778;47.966;7.854;2023-08-17T01:47:02;19.30;99.90
3528;DHT22;1778;47.966;7.854;2023-08-17T01:48:04;19.30;99.90
3528;DHT22;1778;47.966;7.854;2023-08-17T01:49:05;19.30;99.90
3528;DHT22;1778;47.966;7.854;2023-08-17T01:50:07;19.30;99.90
3528;DHT22;1778;47.966;7.854;2023-08-17T01:51:10;19.30;99.90
3528;DHT22;1778;47.966;7.854;2023-08-17T01:52:13;19.30;99.90
3528;DHT22;1778;47.966;7.854;2023-08-17T01:53:14;19.30;99.90
3528;DHT22;1778;47.966;7.854;2023-08-17T01:54:16;19.30;99.90
3528;DHT22;1778;47.966;7.854;2023-08-17T01:55:18;19.40;99.90
3528;DHT22;1778;47.966;7.854;2023-08-17T01:56:20;19.40;99.90
3528;DHT22;1778;47.966;7.854;2023-08-17T01:57:21;19.40;99.90
3528;DHT22;1778;47.966;7.854;2023-08-17T01:58:23;19.50;99.90
3528;DHT22;1778;47.966;7.854;2023-08-17T01:59:26;19.50;99.90
3528;DHT22;1778;47.966;7.854;2023-08-17T02:00:28;19.40;99.90
3528;DHT22;1778;47.966;7.854;2023-08-17T02:01:29;19.40;99.90
3528;DHT22;1778;47.966;7.854;2023-08-17T02:02:31;19.40;99.90
3528;DHT22;1778;47.966;7.854;2023-08-17T02:03:33;19.40;99.90
3528;DHT22;1778;47.966;7.854;2023-08-17T02:04:35;19.40;99.90
3528;DHT22;1778;47.966;7.854;2023-08-17T02:05:36;19.50;99.90
3528;DHT22;1778;47.966;7.854;2023-08-17T02:06:38;19.40;99.90
3528;DHT22;1778;47.966;7.854;2023-08-17T02:07:39;19.40;99.90
3528;DHT22;1778;47.966;7.854;2023-08-17T02:08:41;19.40;99.90
3528;DHT22;1778;47.966;7.854;2023-08-17T02:09:43;19.50;99.90
3528;DHT22;1778;47.966;7.854;2023-08-17T02:10:44;19.50;99.90
3528;DHT22;1778;47.966;7.854;2023-08-17T02:11:46;19.50;99.90
3528;DHT22;1778;47.966;7.854;2023-08-17T02:12:47;19.50;99.90
3528;DHT22;1778;47.966;7.854;2023-08-17T02:13:49;19.50;99.90
3528;DHT22;1778;47.966;7.854;2023-08-17T02:14:50;19.50;99.90
3528;DHT22;1778;47.966;7.854;2023-08-17T02:15:52;19.50;99.90
3528;DHT22;1778;47.966;7.854;2023-08-17T02:16:53;19.50;99.90
3528;DHT22;1778;47.966;7.854;2023-08-17T02:18:01;19.50;99.90
3528;DHT22;1778;47.966;7.854;2023-08-17T02:19:03;19.50;99.90
3528;DHT22;1778;47.966;7.854;2023-08-17T02:20:05;19.50;99.90
3528;DHT22;1778;47.966;7.854;2023-08-17T02:21:08;19.50;99.90
3528;DHT22;1778;47.966;7.854;2023-08-17T02:22:14;19.50;99.90
3528;DHT22;1778;47.966;7.854;2023-08-17T02:23:15;19.50;99.90
3528;DHT22;1778;47.966;7.854;2023-08-17T02:24:18;19.50;99.90
3528;DHT22;1778;47.966;7.854;2023-08-17T02:25:20;19.60;99.90
3528;DHT22;1778;47.966;7.854;2023-08-17T02:26:22;19.60;99.90
3528;DHT22;1778;47.966;7.854;2023-08-17T02:27:23;19.60;99.90
3528;DHT22;1778;47.966;7.854;2023-08-17T02:28:26;19.60;99.90
3528;DHT22;1778;47.966;7.854;2023-08-17T02:29:28;19.60;99.90
3528;DHT22;1778;47.966;7.854;2023-08-17T02:30:29;19.60;99.90
3528;DHT22;1778;47.966;7.854;2023-08-17T02:31:32;19.60;99.90
3528;DHT22;1778;47.966;7.854;2023-08-17T02:32:34;19.60;99.90
3528;DHT22;1778;47.966;7.854;2023-08-17T02:33:36;19.60;99.90
3528;DHT22;1778;47.966;7.854;2023-08-17T02:34:39;19.60;99.90
3528;DHT22;1778;47.966;7.854;2023-08-17T02:35:41;19.60;99.90
3528;DHT22;1778;47.966;7.854;2023-08-17T02:36:43;19.60;99.90
3528;DHT22;1778;47.966;7.854;2023-08-17T02:37:44;19.60;99.90
3528;DHT22;1778;47.966;7.854;2023-08-17T02:38:46;19.60;99.90
3528;DHT22;1778;47.966;7.854;2023-08-17T02:39:47;19.70;99.90
3528;DHT22;1778;47.966;7.854;2023-08-17T02:40:49;19.70;99.90
3528;DHT22;1778;47.966;7.854;2023-08-17T02:41:51;19.70;99.90
3528;DHT22;1778;47.966;7.854;2023-08-17T02:42:53;19.70;99.90
3528;DHT22;1778;47.966;7.854;2023-08-17T02:43:56;19.70;99.90
3528;DHT22;1778;47.966;7.854;2023-08-17T02:44:57;19.70;99.90
3528;DHT22;1778;47.966;7.854;2023-08-17T02:45:59;19.70;99.90
3528;DHT22;1778;47.966;7.854;2023-08-17T02:47:00;19.70;99.90
3528;DHT22;1778;47.966;7.854;2023-08-17T02:48:02;19.80;99.90
3528;DHT22;1778;47.966;7.854;2023-08-17T02:49:04;19.80;99.90
3528;DHT22;1778;47.966;7.854;2023-08-17T02:50:06;19.80;99.90
3528;DHT22;1778;47.966;7.854;2023-08-17T02:51:08;19.80;99.90
3528;DHT22;1778;47.966;7.854;2023-08-17T02:52:10;19.80;99.90
3528;DHT22;1778;47.966;7.854;2023-08-17T02:53:12;19.80;99.90
3528;DHT22;1778;47.966;7.854;2023-08-17T02:54:14;19.80;99.90
3528;DHT22;1778;47.966;7.854;2023-08-17T02:55:15;19.80;99.90
3528;DHT22;1778;47.966;7.854;2023-08-17T02:56:17;19.80;99.90
3528;DHT22;1778;47.966;7.854;2023-08-17T02:57:19;19.80;99.90
3528;DHT22;1778;47.966;7.854;2023-08-17T02:58:21;19.80;99.90
3528;DHT22;1778;47.966;7.854;2023-08-17T02:59:23;19.80;99.90
3528;DHT22;1778;47.966;7.854;2023-08-17T03:00:24;19.80;99.90
3528;DHT22;1778;47.966;7.854;2023-08-17T03:01:26;19.80;99.90
3528;DHT22;1778;47.966;7.854;2023-08-17T03:02:27;19.80;99.90
3528;DHT22;1778;47.966;7.854;2023-08-17T03:03:29;19.80;99.90
3528;DHT22;1778;47.966;7.854;2023-08-17T03:04:31;19.80;99.90
3528;DHT22;1778;47.966;7.854;2023-08-17T03:05:33;19.90;99.90
3528;DHT22;1778;47.966;7.854;2023-08-17T03:06:35;19.90;99.90
3528;DHT22;1778;47.966;7.854;2023-08-17T03:07:36;19.90;99.90
3528;DHT22;1778;47.966;7.854;2023-08-17T03:08:38;19.90;99.90
3528;DHT22;1778;47.966;7.854;2023-08-17T03:09:40;19.90;99.90
3528;DHT22;1778;47.966;7.854;2023-08-17T03:10:41;20.00;99.90
3528;DHT22;1778;47.966;7.854;2023-08-17T03:11:43;20.00;99.90
3528;DHT22;1778;47.966;7.854;2023-08-17T03:12:45;19.90;99.90
3528;DHT22;1778;47.966;7.854;2023-08-17T03:13:47;19.90;99.90
3528;DHT22;1778;47.966;7.854;2023-08-17T03:14:49;19.90;99.90
3528;DHT22;1778;47.966;7.854;2023-08-17T03:15:51;19.90;99.90
3528;DHT22;1778;47.966;7.854;2023-08-17T03:16:52;19.90;99.90
3528;DHT22;1778;47.966;7.854;2023-08-17T03:17:54;19.90;99.90
3528;DHT22;1778;47.966;7.854;2023-08-17T03:18:56;19.90;99.90
3528;DHT22;1778;47.966;7.854;2023-08-17T03:19:57;20.00;99.90
3528;DHT22;1778;47.966;7.854;2023-08-17T03:21:01;20.10;99.90
3528;DHT22;1778;47.966;7.854;2023-08-17T03:22:02;20.00;99.90
3528;DHT22;1778;47.966;7.854;2023-08-17T03:23:04;20.10;99.90
3528;DHT22;1778;47.966;7.854;2023-08-17T03:24:10;20.10;99.90
3528;DHT22;1778;47.966;7.854;2023-08-17T03:25:12;20.00;99.90
3528;DHT22;1778;47.966;7.854;2023-08-17T03:26:15;20.10;99.90
3528;DHT22;1778;47.966;7.854;2023-08-17T03:27:17;20.00;99.90
3528;DHT22;1778;47.966;7.854;2023-08-17T03:28:18;20.00;99.90
3528;DHT22;1778;47.966;7.854;2023-08-17T03:29:20;20.00;99.90
3528;DHT22;1778;47.966;7.854;2023-08-17T03:30:21;20.00;99.90
3528;DHT22;1778;47.966;7.854;2023-08-17T03:31:23;20.00;99.90
3528;DHT22;1778;47.966;7.854;2023-08-17T03:32:25;20.00;99.90
3528;DHT22;1778;47.966;7.854;2023-08-17T03:33:27;20.00;99.90
3528;DHT22;1778;47.966;7.854;2023-08-17T03:34:28;20.00;99.90
3528;DHT22;1778;47.966;7.854;2023-08-17T03:35:30;20.00;99.90
3528;DHT22;1778;47.966;7.854;2023-08-17T03:36:32;20.10;99.90
3528;DHT22;1778;47.966;7.854;2023-08-17T03:37:33;20.00;99.90
3528;DHT22;1778;47.966;7.854;2023-08-17T03:38:35;20.00;99.90
3528;DHT22;1778;47.966;7.854;2023-08-17T03:39:36;20.10;99.90
3528;DHT22;1778;47.966;7.854;2023-08-17T03:40:38;20.00;99.90
3528;DHT22;1778;47.966;7.854;2023-08-17T03:41:39;20.00;99.90
3528;DHT22;1778;47.966;7.854;2023-08-17T03:42:41;20.00;99.90
3528;DHT22;1778;47.966;7.854;2023-08-17T03:43:42;20.00;99.90
3528;DHT22;1778;47.966;7.854;2023-08-17T03:44:44;20.00;99.90
3528;DHT22;1778;47.966;7.854;2023-08-17T03:45:45;20.00;99.90
3528;DHT22;1778;47.966;7.854;2023-08-17T03:46:48;20.00;99.90
3528;DHT22;1778;47.966;7.854;2023-08-17T03:47:50;20.00;99.90
3528;DHT22;1778;47.966;7.854;2023-08-17T03:48:51;20.00;99.90
3528;DHT22;1778;47.966;7.854;2023-08-17T03:49:53;20.00;99.90
3528;DHT22;1778;47.966;7.854;2023-08-17T03:50:55;20.00;99.90
3528;DHT22;1778;47.966;7.854;2023-08-17T03:51:56;20.00;99.90
3528;DHT22;1778;47.966;7.854;2023-08-17T03:52:58;20.00;99.90
3528;DHT22;1778;47.966;7.854;2023-08-17T03:54:00;20.00;99.90
3528;DHT22;1778;47.966;7.854;2023-08-17T03:55:02;20.00;99.90
3528;DHT22;1778;47.966;7.854;2023-08-17T03:56:04;20.00;99.90
3528;DHT22;1778;47.966;7.854;2023-08-17T03:57:05;20.00;99.90
3528;DHT22;1778;47.966;7.854;2023-08-17T03:58:07;20.00;99.90
3528;DHT22;1778;47.966;7.854;2023-08-17T03:59:08;20.00;99.90
3528;DHT22;1778;47.966;7.854;2023-08-17T04:00:10;20.10;99.90
3528;DHT22;1778;47.966;7.854;2023-08-17T04:01:15;20.20;99.90
3528;DHT22;1778;47.966;7.854;2023-08-17T04:02:17;20.20;99.90
3528;DHT22;1778;47.966;7.854;2023-08-17T04:03:19;20.20;99.90
3528;DHT22;1778;47.966;7.854;2023-08-17T04:04:21;20.20;99.90
3528;DHT22;1778;47.966;7.854;2023-08-17T04:05:23;20.20;99.90
3528;DHT22;1778;47.966;7.854;2023-08-17T04:06:25;20.20;99.90
3528;DHT22;1778;47.966;7.854;2023-08-17T04:07:26;20.20;99.90
3528;DHT22;1778;47.966;7.854;2023-08-17T04:08:28;20.20;99.90
3528;DHT22;1778;47.966;7.854;2023-08-17T04:09:30;20.20;99.90
3528;DHT22;1778;47.966;7.854;2023-08-17T04:10:31;20.20;99.90
3528;DHT22;1778;47.966;7.854;2023-08-17T04:11:35;20.20;99.90
3528;DHT22;1778;47.966;7.854;2023-08-17T04:12:37;20.20;99.90
3528;DHT22;1778;47.966;7.854;2023-08-17T04:13:39;20.20;99.90
3528;DHT22;1778;47.966;7.854;2023-08-17T04:14:41;20.20;99.90
3528;DHT22;1778;47.966;7.854;2023-08-17T04:15:42;20.20;99.90
3528;DHT22;1778;47.966;7.854;2023-08-17T04:16:44;20.20;99.90
3528;DHT22;1778;47.966;7.854;2023-08-17T04:17:45;20.10;99.90
3528;DHT22;1778;47.966;7.854;2023-08-17T04:18:47;20.10;99.90
3528;DHT22;1778;47.966;7.854;2023-08-17T04:19:49;20.20;99.90
3528;DHT22;1778;47.966;7.854;2023-08-17T04:20:50;20.10;99.90
3528;DHT22;1778;47.966;7.854;2023-08-17T04:21:55;20.10;99.90
3528;DHT22;1778;47.966;7.854;2023-08-17T04:22:57;20.20;99.90
3528;DHT22;1778;47.966;7.854;2023-08-17T04:23:59;20.20;99.90
3528;DHT22;1778;47.966;7.854;2023-08-17T04:25:01;20.20;99.90
3528;DHT22;1778;47.966;7.854;2023-08-17T04:26:03;20.20;99.90
3528;DHT22;1778;47.966;7.854;2023-08-17T04:27:05;20.20;99.90
3528;DHT22;1778;47.966;7.854;2023-08-17T04:28:06;20.20;99.90
3528;DHT22;1778;47.966;7.854;2023-08-17T04:29:09;20.20;99.90
3528;DHT22;1778;47.966;7.854;2023-08-17T04:30:11;20.20;99.90
3528;DHT22;1778;47.966;7.854;2023-08-17T04:31:24;20.20;99.90
3528;DHT22;1778;47.966;7.854;2023-08-17T04:32:32;20.20;99.90
3528;DHT22;1778;47.966;7.854;2023-08-17T04:33:34;20.20;99.90
3528;DHT22;1778;47.966;7.854;2023-08-17T04:34:35;20.20;99.90
3528;DHT22;1778;47.966;7.854;2023-08-17T04:35:38;20.20;99.90
3528;DHT22;1778;47.966;7.854;2023-08-17T04:36:40;20.20;99.90
3528;DHT22;1778;47.966;7.854;2023-08-17T04:37:42;20.20;99.90
3528;DHT22;1778;47.966;7.854;2023-08-17T04:38:43;20.20;99.90
3528;DHT22;1778;47.966;7.854;2023-08-17T04:39:45;20.20;99.90
3528;DHT22;1778;47.966;7.854;2023-08-17T04:40:53;20.20;99.90
3528;DHT22;1778;47.966;7.854;2023-08-17T04:41:55;20.20;99.90
3528;DHT22;1778;47.966;7.854;2023-08-17T04:43:02;20.20;99.90
3528;DHT22;1778;47.966;7.854;2023-08-17T04:44:04;20.20;99.90
3528;DHT22;1778;47.966;7.854;2023-08-17T04:45:06;20.30;99.90
3528;DHT22;1778;47.966;7.854;2023-08-17T04:46:12;20.30;99.90
3528;DHT22;1778;47.966;7.854;2023-08-17T04:47:14;20.30;99.90
3528;DHT22;1778;47.966;7.854;2023-08-17T04:48:16;20.30;99.90
3528;DHT22;1778;47.966;7.854;2023-08-17T04:49:19;20.30;99.90
3528;DHT22;1778;47.966;7.854;2023-08-17T04:50:21;20.30;99.90
3528;DHT22;1778;47.966;7.854;2023-08-17T04:51:23;20.40;99.90
3528;DHT22;1778;47.966;7.854;2023-08-17T04:52:25;20.40;99.90
3528;DHT22;1778;47.966;7.854;2023-08-17T04:53:27;20.40;99.90
3528;DHT22;1778;47.966;7.854;2023-08-17T04:54:29;20.40;99.90
3528;DHT22;1778;47.966;7.854;2023-08-17T04:55:31;20.40;99.90
3528;DHT22;1778;47.966;7.854;2023-08-17T04:56:33;20.40;99.90
3528;DHT22;1778;47.966;7.854;2023-08-17T04:57:35;20.40;99.90
3528;DHT22;1778;47.966;7.854;2023-08-17T04:58:37;20.40;99.90
3528;DHT22;1778;47.966;7.854;2023-08-17T04:59:38;20.40;99.90
3528;DHT22;1778;47.966;7.854;2023-08-17T05:00:40;20.40;99.90
3528;DHT22;1778;47.966;7.854;2023-08-17T05:01:42;20.40;99.90
3528;DHT22;1778;47.966;7.854;2023-08-17T05:02:45;20.30;99.90
3528;DHT22;1778;47.966;7.854;2023-08-17T05:03:46;20.30;99.90
3528;DHT22;1778;47.966;7.854;2023-08-17T05:04:48;20.40;99.90
3528;DHT22;1778;47.966;7.854;2023-08-17T05:05:52;20.40;99.90
3528;DHT22;1778;47.966;7.854;2023-08-17T05:06:54;20.40;99.90
3528;DHT22;1778;47.966;7.854;2023-08-17T05:07:56;20.40;99.90
3528;DHT22;1778;47.966;7.854;2023-08-17T05:09:00;20.40;99.90
3528;DHT22;1778;47.966;7.854;2023-08-17T05:10:02;20.40;99.90
3528;DHT22;1778;47.966;7.854;2023-08-17T05:11:06;20.40;99.90
3528;DHT22;1778;47.966;7.854;2023-08-17T05:12:08;20.40;99.90
3528;DHT22;1778;47.966;7.854;2023-08-17T05:13:10;20.40;99.90
3528;DHT22;1778;47.966;7.854;2023-08-17T05:14:12;20.40;99.90
3528;DHT22;1778;47.966;7.854;2023-08-17T05:15:14;20.40;99.90
3528;DHT22;1778;47.966;7.854;2023-08-17T05:16:16;20.40;99.90
3528;DHT22;1778;47.966;7.854;2023-08-17T05:17:18;20.40;99.90
3528;DHT22;1778;47.966;7.854;2023-08-17T05:18:21;20.40;99.90
3528;DHT22;1778;47.966;7.854;2023-08-17T05:19:22;20.40;99.90
3528;DHT22;1778;47.966;7.854;2023-08-17T05:20:24;20.50;99.90
3528;DHT22;1778;47.966;7.854;2023-08-17T05:21:27;20.50;99.90
3528;DHT22;1778;47.966;7.854;2023-08-17T05:22:28;20.50;99.90
3528;DHT22;1778;47.966;7.854;2023-08-17T05:23:30;20.50;99.90
3528;DHT22;1778;47.966;7.854;2023-08-17T05:24:32;20.50;99.90
3528;DHT22;1778;47.966;7.854;2023-08-17T05:25:34;20.50;99.90
3528;DHT22;1778;47.966;7.854;2023-08-17T05:26:36;20.50;99.90
3528;DHT22;1778;47.966;7.854;2023-08-17T05:27:37;20.50;99.90
3528;DHT22;1778;47.966;7.854;2023-08-17T05:28:39;20.50;99.90
3528;DHT22;1778;47.966;7.854;2023-08-17T05:29:40;20.50;99.90
3528;DHT22;1778;47.966;7.854;2023-08-17T05:30:43;20.60;99.90
3528;DHT22;1778;47.966;7.854;2023-08-17T05:31:44;20.60;99.90
3528;DHT22;1778;47.966;7.854;2023-08-17T05:32:46;20.60;99.90
3528;DHT22;1778;47.966;7.854;2023-08-17T05:33:48;20.50;99.90
3528;DHT22;1778;47.966;7.854;2023-08-17T05:34:51;20.60;99.90
3528;DHT22;1778;47.966;7.854;2023-08-17T05:35:54;20.60;99.90
3528;DHT22;1778;47.966;7.854;2023-08-17T05:36:56;20.60;99.90
3528;DHT22;1778;47.966;7.854;2023-08-17T05:37:57;20.60;99.90
3528;DHT22;1778;47.966;7.854;2023-08-17T05:38:59;20.60;99.90
3528;DHT22;1778;47.966;7.854;2023-08-17T05:40:03;20.60;99.90
3528;DHT22;1778;47.966;7.854;2023-08-17T05:41:06;20.60;99.90
3528;DHT22;1778;47.966;7.854;2023-08-17T05:42:08;20.70;99.90
3528;DHT22;1778;47.966;7.854;2023-08-17T05:43:11;20.70;99.90
3528;DHT22;1778;47.966;7.854;2023-08-17T05:44:13;20.80;99.90
3528;DHT22;1778;47.966;7.854;2023-08-17T05:45:16;20.90;99.90
3528;DHT22;1778;47.966;7.854;2023-08-17T05:46:18;20.90;99.90
3528;DHT22;1778;47.966;7.854;2023-08-17T05:47:21;20.90;99.90
3528;DHT22;1778;47.966;7.854;2023-08-17T05:48:22;20.90;99.90
3528;DHT22;1778;47.966;7.854;2023-08-17T05:49:24;20.90;99.90
3528;DHT22;1778;47.966;7.854;2023-08-17T05:50:26;20.90;99.90
3528;DHT22;1778;47.966;7.854;2023-08-17T05:51:28;20.90;99.90
3528;DHT22;1778;47.966;7.854;2023-08-17T05:52:31;20.90;99.90
3528;DHT22;1778;47.966;7.854;2023-08-17T05:53:33;21.00;99.90
3528;DHT22;1778;47.966;7.854;2023-08-17T05:54:35;21.00;99.90
3528;DHT22;1778;47.966;7.854;2023-08-17T05:55:36;21.00;99.90
3528;DHT22;1778;47.966;7.854;2023-08-17T05:56:38;21.10;99.90
3528;DHT22;1778;47.966;7.854;2023-08-17T05:57:39;21.00;99.90
3528;DHT22;1778;47.966;7.854;2023-08-17T05:58:41;21.00;99.90
3528;DHT22;1778;47.966;7.854;2023-08-17T05:59:44;21.00;99.90
3528;DHT22;1778;47.966;7.854;2023-08-17T06:00:46;21.00;99.90
3528;DHT22;1778;47.966;7.854;2023-08-17T06:01:47;21.00;99.90
3528;DHT22;1778;47.966;7.854;2023-08-17T06:02:49;21.10;99.90
3528;DHT22;1778;47.966;7.854;2023-08-17T06:03:53;21.10;99.90
3528;DHT22;1778;47.966;7.854;2023-08-17T06:04:54;21.10;99.90
3528;DHT22;1778;47.966;7.854;2023-08-17T06:05:56;21.20;99.90
3528;DHT22;1778;47.966;7.854;2023-08-17T06:06:57;21.30;99.90
3528;DHT22;1778;47.966;7.854;2023-08-17T06:07:59;21.30;99.90
3528;DHT22;1778;47.966;7.854;2023-08-17T06:09:00;21.40;99.90
3528;DHT22;1778;47.966;7.854;2023-08-17T06:10:03;21.40;99.90
3528;DHT22;1778;47.966;7.854;2023-08-17T06:11:05;21.30;99.90
3528;DHT22;1778;47.966;7.854;2023-08-17T06:12:07;21.40;99.90
3528;DHT22;1778;47.966;7.854;2023-08-17T06:13:09;21.40;99.90
3528;DHT22;1778;47.966;7.854;2023-08-17T06:14:10;21.40;99.90
3528;DHT22;1778;47.966;7.854;2023-08-17T06:15:13;21.40;99.90
3528;DHT22;1778;47.966;7.854;2023-08-17T06:16:15;21.40;99.90
3528;DHT22;1778;47.966;7.854;2023-08-17T06:17:17;21.40;99.90
3528;DHT22;1778;47.966;7.854;2023-08-17T06:18:19;21.40;99.90
3528;DHT22;1778;47.966;7.854;2023-08-17T06:19:21;21.40;99.90
3528;DHT22;1778;47.966;7.854;2023-08-17T06:20:23;21.40;99.90
3528;DHT22;1778;47.966;7.854;2023-08-17T06:21:25;21.40;99.90
3528;DHT22;1778;47.966;7.854;2023-08-17T06:22:26;21.40;99.90
3528;DHT22;1778;47.966;7.854;2023-08-17T06:23:28;21.20;99.90
3528;DHT22;1778;47.966;7.854;2023-08-17T06:24:29;21.00;99.90
3528;DHT22;1778;47.966;7.854;2023-08-17T06:25:31;20.90;99.90
3528;DHT22;1778;47.966;7.854;2023-08-17T06:26:33;20.80;99.90
3528;DHT22;1778;47.966;7.854;2023-08-17T06:27:35;20.80;99.90
3528;DHT22;1778;47.966;7.854;2023-08-17T06:28:37;20.80;99.90
3528;DHT22;1778;47.966;7.854;2023-08-17T06:29:38;20.80;99.90
3528;DHT22;1778;47.966;7.854;2023-08-17T06:30:40;20.90;99.90
3528;DHT22;1778;47.966;7.854;2023-08-17T06:31:42;20.90;99.90
3528;DHT22;1778;47.966;7.854;2023-08-17T06:32:44;20.80;99.90
3528;DHT22;1778;47.966;7.854;2023-08-17T06:33:45;20.60;99.90
3528;DHT22;1778;47.966;7.854;2023-08-17T06:34:47;20.50;99.90
3528;DHT22;1778;47.966;7.854;2023-08-17T06:35:49;20.70;99.90
3528;DHT22;1778;47.966;7.854;2023-08-17T06:37:03;20.60;99.90
3528;DHT22;1778;47.966;7.854;2023-08-17T06:38:05;20.70;99.90
3528;DHT22;1778;47.966;7.854;2023-08-17T06:39:06;20.70;99.90
3528;DHT22;1778;47.966;7.854;2023-08-17T06:40:08;20.90;99.90
3528;DHT22;1778;47.966;7.854;2023-08-17T06:41:13;20.80;99.90
3528;DHT22;1778;47.966;7.854;2023-08-17T06:42:14;20.80;99.90
3528;DHT22;1778;47.966;7.854;2023-08-17T06:43:16;20.90;99.90
3528;DHT22;1778;47.966;7.854;2023-08-17T06:44:19;20.90;99.90
3528;DHT22;1778;47.966;7.854;2023-08-17T06:45:21;20.90;99.90
3528;DHT22;1778;47.966;7.854;2023-08-17T06:46:25;20.90;99.90
3528;DHT22;1778;47.966;7.854;2023-08-17T06:47:26;21.00;99.90
3528;DHT22;1778;47.966;7.854;2023-08-17T06:48:28;21.00;99.90
3528;DHT22;1778;47.966;7.854;2023-08-17T06:49:30;21.10;99.90
3528;DHT22;1778;47.966;7.854;2023-08-17T06:50:32;21.20;99.90
3528;DHT22;1778;47.966;7.854;2023-08-17T06:51:33;21.20;99.90
3528;DHT22;1778;47.966;7.854;2023-08-17T06:52:35;21.30;99.90